sensor_id;sensor_type;location;lat;lon;timestamp;pressure;altitude;pressure_sealevel;temperature;humidity
38939;BME280;24211;49.980;19.776;2024-03-29T00:01:38;97993.88;;;10.17;100.00
38939;BME280;24211;49.980;19.776;2024-03-29T00:04:05;98004.28;;;10.14;100.00
38939;BME280;24211;49.980;19.776;2024-03-29T00:06:32;98005.56;;;10.11;100.00
38939;BME280;24211;49.980;19.776;2024-03-29T00:08:59;97999.22;;;10.17;100.00
38939;BME280;24211;49.980;19.776;2024-03-29T00:11:27;98003.81;;;10.00;100.00
38939;BME280;24211;49.980;19.776;2024-03-29T00:13:54;98013.41;;;9.96;100.00
38939;BME280;24211;49.980;19.776;2024-03-29T00:16:20;98014.00;;;10.03;100.00
38939;BME280;24211;49.980;19.776;2024-03-29T00:18:48;98021.91;;;9.93;100.00
38939;BME280;24211;49.980;19.776;2024-03-29T00:21:14;98025.72;;;9.97;100.00
38939;BME280;24211;49.980;19.776;2024-03-29T00:23:41;98035.84;;;10.00;100.00
38939;BME280;24211;49.980;19.776;2024-03-29T00:26:07;98026.53;;;10.03;100.00
38939;BME280;24211;49.980;19.776;2024-03-29T00:28:34;98039.09;;;10.02;100.00
38939;BME280;24211;49.980;19.776;2024-03-29T00:31:00;98050.78;;;9.96;100.00
38939;BME280;24211;49.980;19.776;2024-03-29T00:33:27;98047.00;;;9.92;100.00
38939;BME280;24211;49.980;19.776;2024-03-29T00:35:53;98050.66;;;9.86;100.00
38939;BME280;24211;49.980;19.776;2024-03-29T00:38:19;98053.59;;;9.84;100.00
38939;BME280;24211;49.980;19.776;2024-03-29T00:40:46;98058.31;;;9.77;100.00
38939;BME280;24211;49.980;19.776;2024-03-29T00:43:14;98058.06;;;9.79;100.00
38939;BME280;24211;49.980;19.776;2024-03-29T00:45:41;98064.50;;;9.83;100.00
38939;BME280;24211;49.980;19.776;2024-03-29T00:48:07;98066.19;;;9.89;100.00
38939;BME280;24211;49.980;19.776;2024-03-29T00:50:34;98063.78;;;9.88;100.00
38939;BME280;24211;49.980;19.776;2024-03-29T00:53:00;98087.53;;;9.89;100.00
38939;BME280;24211;49.980;19.776;2024-03-29T00:55:28;98086.97;;;9.87;100.00
38939;BME280;24211;49.980;19.776;2024-03-29T00:57:55;98096.91;;;9.92;100.00
38939;BME280;24211;49.980;19.776;2024-03-29T01:00:22;98097.72;;;9.92;100.00
38939;BME280;24211;49.980;19.776;2024-03-29T01:02:49;98114.47;;;9.88;100.00
38939;BME280;24211;49.980;19.776;2024-03-29T01:05:15;98123.13;;;9.78;100.00
38939;BME280;24211;49.980;19.776;2024-03-29T01:07:42;98120.47;;;9.78;100.00
38939;BME280;24211;49.980;19.776;2024-03-29T01:10:09;98120.72;;;9.76;100.00
38939;BME280;24211;49.980;19.776;2024-03-29T01:12:36;98126.88;;;9.77;100.00
38939;BME280;24211;49.980;19.776;2024-03-29T01:15:04;98127.91;;;9.76;100.00
38939;BME280;24211;49.980;19.776;2024-03-29T01:17:30;98124.75;;;9.79;100.00
38939;BME280;24211;49.980;19.776;2024-03-29T01:19:56;98127.16;;;9.80;100.00
38939;BME280;24211;49.980;19.776;2024-03-29T01:22:23;98127.16;;;9.80;100.00
38939;BME280;24211;49.980;19.776;2024-03-29T01:24:49;98123.94;;;9.78;100.00
38939;BME280;24211;49.980;19.776;2024-03-29T01:27:16;98126.88;;;9.77;100.00
38939;BME280;24211;49.980;19.776;2024-03-29T01:29:43;98136.41;;;9.73;100.00
38939;BME280;24211;49.980;19.776;2024-03-29T01:32:10;98144.88;;;9.65;100.00
38939;BME280;24211;49.980;19.776;2024-03-29T01:34:37;98156.03;;;9.62;100.00
38939;BME280;24211;49.980;19.776;2024-03-29T01:37:04;98160.25;;;9.58;100.00
38939;BME280;24211;49.980;19.776;2024-03-29T01:39:31;98159.63;;;9.51;100.00
38939;BME280;24211;49.980;19.776;2024-03-29T01:41:57;98170.22;;;9.46;100.00
38939;BME280;24211;49.980;19.776;2024-03-29T01:44:23;98176.03;;;9.43;100.00
38939;BME280;24211;49.980;19.776;2024-03-29T01:46:50;98182.25;;;9.32;100.00
38939;BME280;24211;49.980;19.776;2024-03-29T01:49:17;98189.13;;;9.28;100.00
38939;BME280;24211;49.980;19.776;2024-03-29T01:51:48;98196.31;;;9.27;100.00
38939;BME280;24211;49.980;19.776;2024-03-29T01:54:15;98208.75;;;9.21;100.00
38939;BME280;24211;49.980;19.776;2024-03-29T01:56:43;98216.19;;;9.19;100.00
38939;BME280;24211;49.980;19.776;2024-03-29T01:59:16;98224.09;;;9.14;100.00
38939;BME280;24211;49.980;19.776;2024-03-29T02:01:45;98230.97;;;9.10;100.00
38939;BME280;24211;49.980;19.776;2024-03-29T02:04:12;98242.19;;;9.12;100.00
38939;BME280;24211;49.980;19.776;2024-03-29T02:06:39;98253.81;;;9.06;100.00
38939;BME280;24211;49.980;19.776;2024-03-29T02:09:05;98261.56;;;9.08;100.00
38939;BME280;24211;49.980;19.776;2024-03-29T02:11:34;98258.00;;;9.02;100.00
38939;BME280;24211;49.980;19.776;2024-03-29T02:14:03;98268.47;;;8.92;100.00
38939;BME280;24211;49.980;19.776;2024-03-29T02:16:33;98262.97;;;8.82;100.00
38939;BME280;24211;49.980;19.776;2024-03-29T02:18:59;98274.59;;;8.76;100.00
38939;BME280;24211;49.980;19.776;2024-03-29T02:21:26;98291.03;;;8.73;100.00
38939;BME280;24211;49.980;19.776;2024-03-29T02:24:07;98289.91;;;8.69;100.00
38939;BME280;24211;49.980;19.776;2024-03-29T02:26:35;98293.88;;;8.55;100.00
38939;BME280;24211;49.980;19.776;2024-03-29T02:29:08;98306.03;;;8.51;100.00
38939;BME280;24211;49.980;19.776;2024-03-29T02:31:39;98313.00;;;8.52;100.00
38939;BME280;24211;49.980;19.776;2024-03-29T02:34:06;98324.81;;;8.44;100.00
38939;BME280;24211;49.980;19.776;2024-03-29T02:36:35;98332.00;;;8.44;100.00
38939;BME280;24211;49.980;19.776;2024-03-29T02:39:03;98336.28;;;8.45;100.00
38939;BME280;24211;49.980;19.776;2024-03-29T02:41:30;98336.41;;;8.38;100.00
38939;BME280;24211;49.980;19.776;2024-03-29T02:43:57;98331.22;;;8.32;100.00
38939;BME280;24211;49.980;19.776;2024-03-29T02:46:24;98322.28;;;8.38;100.00
38939;BME280;24211;49.980;19.776;2024-03-29T02:48:50;98333.97;;;8.37;100.00
38939;BME280;24211;49.980;19.776;2024-03-29T02:51:16;98331.66;;;8.29;100.00
38939;BME280;24211;49.980;19.776;2024-03-29T02:53:43;98334.91;;;8.31;100.00
38939;BME280;24211;49.980;19.776;2024-03-29T02:56:13;98337.00;;;8.29;100.00
38939;BME280;24211;49.980;19.776;2024-03-29T02:58:41;98344.41;;;8.27;100.00
38939;BME280;24211;49.980;19.776;2024-03-29T03:01:08;98342.75;;;8.26;100.00
38939;BME280;24211;49.980;19.776;2024-03-29T03:03:35;98358.84;;;8.31;100.00
38939;BME280;24211;49.980;19.776;2024-03-29T03:06:02;98361.53;;;8.31;100.00
38939;BME280;24211;49.980;19.776;2024-03-29T03:08:32;98369.28;;;8.32;100.00
38939;BME280;24211;49.980;19.776;2024-03-29T03:11:17;98375.44;;;8.33;100.00
38939;BME280;24211;49.980;19.776;2024-03-29T03:13:44;98391.03;;;8.29;100.00
38939;BME280;24211;49.980;19.776;2024-03-29T03:16:11;98389.88;;;8.25;100.00
38939;BME280;24211;49.980;19.776;2024-03-29T03:18:37;98392.75;;;8.24;100.00
38939;BME280;24211;49.980;19.776;2024-03-29T03:21:05;98400.16;;;8.22;100.00
38939;BME280;24211;49.980;19.776;2024-03-29T03:23:32;98403.84;;;8.21;100.00
38939;BME280;24211;49.980;19.776;2024-03-29T03:26:02;98404.09;;;8.19;100.00
38939;BME280;24211;49.980;19.776;2024-03-29T03:28:32;98415.66;;;8.25;100.00
38939;BME280;24211;49.980;19.776;2024-03-29T03:30:59;98419.25;;;8.19;100.00
38939;BME280;24211;49.980;19.776;2024-03-29T03:33:25;98405.81;;;8.14;100.00
38939;BME280;24211;49.980;19.776;2024-03-29T03:35:51;98403.28;;;8.19;100.00
38939;BME280;24211;49.980;19.776;2024-03-29T03:38:18;98408.13;;;8.22;100.00
38939;BME280;24211;49.980;19.776;2024-03-29T03:40:44;98403.38;;;8.24;100.00
38939;BME280;24211;49.980;19.776;2024-03-29T03:43:11;98399.13;;;8.23;100.00
38939;BME280;24211;49.980;19.776;2024-03-29T03:45:39;98404.44;;;8.23;100.00
38939;BME280;24211;49.980;19.776;2024-03-29T03:48:08;98410.81;;;8.22;100.00
38939;BME280;24211;49.980;19.776;2024-03-29T03:50:39;98415.66;;;8.25;100.00
38939;BME280;24211;49.980;19.776;2024-03-29T03:53:07;98412.44;;;8.23;100.00
38939;BME280;24211;49.980;19.776;2024-03-29T03:55:37;98416.13;;;8.22;100.00
38939;BME280;24211;49.980;19.776;2024-03-29T03:58:04;98416.94;;;8.22;100.00
38939;BME280;24211;49.980;19.776;2024-03-29T04:00:31;98419.81;;;8.21;100.00
38939;BME280;24211;49.980;19.776;2024-03-29T04:02:57;98424.34;;;8.20;100.00
38939;BME280;24211;49.980;19.776;2024-03-29T04:05:24;98437.88;;;8.19;100.00
38939;BME280;24211;49.980;19.776;2024-03-29T04:07:53;98442.63;;;8.17;100.00
38939;BME280;24211;49.980;19.776;2024-03-29T04:10:20;98445.28;;;8.17;100.00
38939;BME280;24211;49.980;19.776;2024-03-29T04:12:46;98450.28;;;8.13;100.00
38939;BME280;24211;49.980;19.776;2024-03-29T04:15:13;98441.91;;;8.10;100.00
38939;BME280;24211;49.980;19.776;2024-03-29T04:17:39;98446.66;;;8.08;100.00
38939;BME280;24211;49.980;19.776;2024-03-29T04:20:06;98448.50;;;8.07;100.00
38939;BME280;24211;49.980;19.776;2024-03-29T04:22:32;98450.34;;;8.07;100.00
38939;BME280;24211;49.980;19.776;2024-03-29T04:24:58;98452.44;;;8.05;100.00
38939;BME280;24211;49.980;19.776;2024-03-29T04:27:27;98460.44;;;8.05;100.00
38939;BME280;24211;49.980;19.776;2024-03-29T04:29:54;98468.84;;;8.02;100.00
38939;BME280;24211;49.980;19.776;2024-03-29T04:32:21;98463.97;;;7.99;100.00
38939;BME280;24211;49.980;19.776;2024-03-29T04:34:51;98463.28;;;7.91;100.00
38939;BME280;24211;49.980;19.776;2024-03-29T04:37:18;98459.47;;;7.87;100.00
38939;BME280;24211;49.980;19.776;2024-03-29T04:39:46;98463.75;;;7.88;100.00
38939;BME280;24211;49.980;19.776;2024-03-29T04:42:13;98461.22;;;7.94;100.00
38939;BME280;24211;49.980;19.776;2024-03-29T04:44:41;98475.91;;;7.96;100.00
38939;BME280;24211;49.980;19.776;2024-03-29T04:47:08;98487.72;;;8.00;100.00
38939;BME280;24211;49.980;19.776;2024-03-29T04:49:35;98483.78;;;8.03;100.00
38939;BME280;24211;49.980;19.776;2024-03-29T04:52:07;98486.47;;;8.03;100.00
38939;BME280;24211;49.980;19.776;2024-03-29T04:54:34;98480.69;;;8.06;100.00
38939;BME280;24211;49.980;19.776;2024-03-29T04:57:01;98484.50;;;8.10;100.00
38939;BME280;24211;49.980;19.776;2024-03-29T04:59:28;98478.03;;;8.17;100.00
38939;BME280;24211;49.980;19.776;2024-03-29T05:01:56;98492.50;;;8.21;100.00
38939;BME280;24211;49.980;19.776;2024-03-29T05:04:23;98491.97;;;8.31;100.00
38939;BME280;24211;49.980;19.776;2024-03-29T05:06:54;98488.38;;;8.37;100.00
38939;BME280;24211;49.980;19.776;2024-03-29T05:09:22;98477.16;;;8.46;100.00
38939;BME280;24211;49.980;19.776;2024-03-29T05:11:48;98473.34;;;8.54;100.00
38939;BME280;24211;49.980;19.776;2024-03-29T05:14:17;98477.72;;;8.60;100.00
38939;BME280;24211;49.980;19.776;2024-03-29T05:16:47;98471.47;;;8.66;100.00
38939;BME280;24211;49.980;19.776;2024-03-29T05:19:15;98476.56;;;8.79;100.00
38939;BME280;24211;49.980;19.776;2024-03-29T05:21:42;98486.56;;;8.72;100.00
38939;BME280;24211;49.980;19.776;2024-03-29T05:24:09;98483.50;;;8.80;100.00
38939;BME280;24211;49.980;19.776;2024-03-29T05:26:36;98488.84;;;8.80;100.00
38939;BME280;24211;49.980;19.776;2024-03-29T05:29:02;98494.53;;;8.84;100.00
38939;BME280;24211;49.980;19.776;2024-03-29T05:31:30;98507.16;;;8.88;100.00
38939;BME280;24211;49.980;19.776;2024-03-29T05:33:56;98514.19;;;9.06;100.00
38939;BME280;24211;49.980;19.776;2024-03-29T05:36:23;98512.22;;;9.13;100.00
38939;BME280;24211;49.980;19.776;2024-03-29T05:38:49;98512.84;;;9.32;100.00
38939;BME280;24211;49.980;19.776;2024-03-29T05:41:16;98510.75;;;9.34;100.00
38939;BME280;24211;49.980;19.776;2024-03-29T05:43:42;98513.50;;;9.50;100.00
38939;BME280;24211;49.980;19.776;2024-03-29T05:46:08;98522.31;;;9.51;100.00
38939;BME280;24211;49.980;19.776;2024-03-29T05:48:35;98530.13;;;9.69;100.00
38939;BME280;24211;49.980;19.776;2024-03-29T05:51:02;98526.94;;;9.83;100.00
38939;BME280;24211;49.980;19.776;2024-03-29T05:53:28;98522.88;;;10.09;100.00
38939;BME280;24211;49.980;19.776;2024-03-29T05:55:54;98521.22;;;10.20;100.00
38939;BME280;24211;49.980;19.776;2024-03-29T05:58:21;98521.72;;;10.33;100.00
38939;BME280;24211;49.980;19.776;2024-03-29T06:00:48;98522.84;;;10.37;100.00
38939;BME280;24211;49.980;19.776;2024-03-29T06:03:15;98519.78;;;10.45;100.00
38939;BME280;24211;49.980;19.776;2024-03-29T06:05:42;98527.78;;;10.62;100.00
38939;BME280;24211;49.980;19.776;2024-03-29T06:08:09;98533.19;;;10.84;100.00
38939;BME280;24211;49.980;19.776;2024-03-29T06:10:35;98536.56;;;11.12;100.00
38939;BME280;24211;49.980;19.776;2024-03-29T06:13:02;98532.50;;;11.10;100.00
38939;BME280;24211;49.980;19.776;2024-03-29T06:15:34;98535.00;;;11.16;100.00
38939;BME280;24211;49.980;19.776;2024-03-29T06:18:19;98550.69;;;11.30;100.00
38939;BME280;24211;49.980;19.776;2024-03-29T06:20:47;98538.22;;;11.40;100.00
38939;BME280;24211;49.980;19.776;2024-03-29T06:23:14;98538.13;;;11.52;100.00
38939;BME280;24211;49.980;19.776;2024-03-29T06:25:40;98544.16;;;11.64;100.00
38939;BME280;24211;49.980;19.776;2024-03-29T06:28:07;98541.72;;;11.62;100.00
38939;BME280;24211;49.980;19.776;2024-03-29T06:30:33;98532.72;;;11.68;100.00
38939;BME280;24211;49.980;19.776;2024-03-29T06:32:59;98527.59;;;11.89;100.00
38939;BME280;24211;49.980;19.776;2024-03-29T06:35:29;98514.59;;;12.29;100.00
38939;BME280;24211;49.980;19.776;2024-03-29T06:37:57;98518.53;;;12.48;100.00
38939;BME280;24211;49.980;19.776;2024-03-29T06:40:24;98516.97;;;12.57;100.00
38939;BME280;24211;49.980;19.776;2024-03-29T06:42:50;98525.72;;;12.79;100.00
38939;BME280;24211;49.980;19.776;2024-03-29T06:45:17;98522.56;;;12.92;100.00
38939;BME280;24211;49.980;19.776;2024-03-29T06:47:44;98527.19;;;12.97;100.00
38939;BME280;24211;49.980;19.776;2024-03-29T06:50:10;98522.69;;;13.07;100.00
38939;BME280;24211;49.980;19.776;2024-03-29T06:52:36;98526.03;;;13.30;100.00
38939;BME280;24211;49.980;19.776;2024-03-29T06:55:03;98526.88;;;13.40;100.00
38939;BME280;24211;49.980;19.776;2024-03-29T06:57:29;98524.53;;;13.49;100.00
38939;BME280;24211;49.980;19.776;2024-03-29T06:59:58;98535.31;;;13.69;100.00
38939;BME280;24211;49.980;19.776;2024-03-29T07:02:24;98535.34;;;13.79;100.00
38939;BME280;24211;49.980;19.776;2024-03-29T07:04:51;98539.94;;;13.89;100.00
38939;BME280;24211;49.980;19.776;2024-03-29T07:07:18;98541.63;;;14.10;100.00
38939;BME280;24211;49.980;19.776;2024-03-29T07:09:44;98556.94;;;14.14;100.00
38939;BME280;24211;49.980;19.776;2024-03-29T07:12:11;98533.34;;;14.31;100.00
38939;BME280;24211;49.980;19.776;2024-03-29T07:14:37;98525.84;;;14.64;100.00
38939;BME280;24211;49.980;19.776;2024-03-29T07:17:04;98514.50;;;14.92;100.00
38939;BME280;24211;49.980;19.776;2024-03-29T07:19:31;98500.78;;;15.03;100.00
38939;BME280;24211;49.980;19.776;2024-03-29T07:21:57;98491.25;;;15.26;100.00
38939;BME280;24211;49.980;19.776;2024-03-29T07:24:23;98484.44;;;15.54;100.00
38939;BME280;24211;49.980;19.776;2024-03-29T07:26:50;98489.47;;;15.70;100.00
38939;BME280;24211;49.980;19.776;2024-03-29T07:29:16;98487.22;;;15.88;100.00
38939;BME280;24211;49.980;19.776;2024-03-29T07:31:43;98469.56;;;15.72;100.00
38939;BME280;24211;49.980;19.776;2024-03-29T07:34:09;98468.16;;;15.79;100.00
38939;BME280;24211;49.980;19.776;2024-03-29T07:36:36;98462.78;;;16.18;100.00
38939;BME280;24211;49.980;19.776;2024-03-29T07:39:04;98465.34;;;16.67;100.00
38939;BME280;24211;49.980;19.776;2024-03-29T07:41:30;98483.69;;;16.93;100.00
38939;BME280;24211;49.980;19.776;2024-03-29T07:43:58;98501.22;;;16.96;100.00
38939;BME280;24211;49.980;19.776;2024-03-29T07:46:34;98506.91;;;16.94;100.00
38939;BME280;24211;49.980;19.776;2024-03-29T07:49:02;98509.28;;;16.72;99.15
38939;BME280;24211;49.980;19.776;2024-03-29T07:51:29;98521.47;;;16.31;91.47
38939;BME280;24211;49.980;19.776;2024-03-29T07:53:57;98518.34;;;16.14;88.47
38939;BME280;24211;49.980;19.776;2024-03-29T07:56:24;98516.69;;;16.18;84.85
38939;BME280;24211;49.980;19.776;2024-03-29T07:58:52;98524.16;;;16.31;83.17
38939;BME280;24211;49.980;19.776;2024-03-29T08:01:21;98520.91;;;16.29;81.28
38939;BME280;24211;49.980;19.776;2024-03-29T08:03:51;98522.97;;;16.42;80.49
38939;BME280;24211;49.980;19.776;2024-03-29T08:06:21;98529.97;;;16.82;85.55
38939;BME280;24211;49.980;19.776;2024-03-29T08:08:50;98529.31;;;17.19;84.26
38939;BME280;24211;49.980;19.776;2024-03-29T08:11:19;98520.66;;;17.22;81.33
38939;BME280;24211;49.980;19.776;2024-03-29T08:13:45;98517.56;;;17.10;82.20
38939;BME280;24211;49.980;19.776;2024-03-29T08:16:12;98522.00;;;17.24;80.25
38939;BME280;24211;49.980;19.776;2024-03-29T08:18:39;98539.00;;;17.25;78.54
38939;BME280;24211;49.980;19.776;2024-03-29T08:21:06;98545.31;;;17.39;77.88
38939;BME280;24211;49.980;19.776;2024-03-29T08:23:41;98537.16;;;17.44;76.59
38939;BME280;24211;49.980;19.776;2024-03-29T08:26:10;98534.31;;;17.59;76.36
38939;BME280;24211;49.980;19.776;2024-03-29T08:28:38;98533.47;;;17.82;73.82
38939;BME280;24211;49.980;19.776;2024-03-29T08:31:06;98531.41;;;17.74;70.37
38939;BME280;24211;49.980;19.776;2024-03-29T08:33:36;98534.84;;;17.80;69.78
38939;BME280;24211;49.980;19.776;2024-03-29T08:36:07;98531.38;;;17.98;68.18
38939;BME280;24211;49.980;19.776;2024-03-29T08:38:35;98536.25;;;18.14;68.66
38939;BME280;24211;49.980;19.776;2024-03-29T08:41:02;98535.47;;;18.33;73.04
38939;BME280;24211;49.980;19.776;2024-03-29T08:43:29;98526.91;;;18.25;67.05
38939;BME280;24211;49.980;19.776;2024-03-29T08:45:55;98531.22;;;18.26;68.36
38939;BME280;24211;49.980;19.776;2024-03-29T08:48:23;98523.34;;;18.49;68.85
38939;BME280;24211;49.980;19.776;2024-03-29T08:50:51;98523.56;;;18.98;68.15
38939;BME280;24211;49.980;19.776;2024-03-29T08:53:17;98525.78;;;18.96;65.46
38939;BME280;24211;49.980;19.776;2024-03-29T08:55:46;98522.81;;;19.11;69.15
38939;BME280;24211;49.980;19.776;2024-03-29T08:58:15;98534.69;;;19.42;65.96
38939;BME280;24211;49.980;19.776;2024-03-29T09:00:41;98540.50;;;19.49;61.94
38939;BME280;24211;49.980;19.776;2024-03-29T09:03:08;98540.63;;;19.58;62.27
38939;BME280;24211;49.980;19.776;2024-03-29T09:05:34;98539.03;;;19.43;59.79
38939;BME280;24211;49.980;19.776;2024-03-29T09:08:01;98534.88;;;19.60;63.55
38939;BME280;24211;49.980;19.776;2024-03-29T09:10:27;98528.22;;;19.93;64.26
38939;BME280;24211;49.980;19.776;2024-03-29T09:12:54;98530.41;;;20.04;63.77
38939;BME280;24211;49.980;19.776;2024-03-29T09:15:20;98540.25;;;20.14;61.12
38939;BME280;24211;49.980;19.776;2024-03-29T09:17:46;98538.00;;;20.30;59.62
38939;BME280;24211;49.980;19.776;2024-03-29T09:20:13;98537.16;;;20.43;58.86
38939;BME280;24211;49.980;19.776;2024-03-29T09:22:40;98530.69;;;20.52;56.68
38939;BME280;24211;49.980;19.776;2024-03-29T09:25:07;98533.28;;;20.57;57.57
38939;BME280;24211;49.980;19.776;2024-03-29T09:27:37;98532.06;;;20.63;56.83
38939;BME280;24211;49.980;19.776;2024-03-29T09:30:06;98526.25;;;20.78;56.58
38939;BME280;24211;49.980;19.776;2024-03-29T09:32:33;98534.63;;;20.91;56.62
38939;BME280;24211;49.980;19.776;2024-03-29T09:34:59;98531.25;;;21.07;55.18
38939;BME280;24211;49.980;19.776;2024-03-29T09:37:29;98535.53;;;21.08;52.75
38939;BME280;24211;49.980;19.776;2024-03-29T09:39:55;98528.81;;;21.36;51.89
38939;BME280;24211;49.980;19.776;2024-03-29T09:42:23;98529.69;;;21.54;50.85
38939;BME280;24211;49.980;19.776;2024-03-29T09:44:56;98536.22;;;21.53;49.88
38939;BME280;24211;49.980;19.776;2024-03-29T09:47:25;98541.66;;;21.44;49.24
38939;BME280;24211;49.980;19.776;2024-03-29T09:49:53;98538.59;;;21.46;48.11
38939;BME280;24211;49.980;19.776;2024-03-29T09:52:21;98531.56;;;21.45;46.14
38939;BME280;24211;49.980;19.776;2024-03-29T09:54:47;98532.06;;;21.47;46.60
38939;BME280;24211;49.980;19.776;2024-03-29T09:57:14;98527.16;;;21.66;45.92
38939;BME280;24211;49.980;19.776;2024-03-29T09:59:41;98524.88;;;21.51;45.18
38939;BME280;24211;49.980;19.776;2024-03-29T10:02:18;98522.47;;;21.49;44.64
38939;BME280;24211;49.980;19.776;2024-03-29T10:04:48;98511.94;;;21.57;44.58
38939;BME280;24211;49.980;19.776;2024-03-29T10:07:19;98512.13;;;21.69;44.83
38939;BME280;24211;49.980;19.776;2024-03-29T10:09:46;98508.31;;;21.78;45.34
38939;BME280;24211;49.980;19.776;2024-03-29T10:12:13;98502.13;;;21.95;44.61
38939;BME280;24211;49.980;19.776;2024-03-29T10:14:49;98501.66;;;22.01;43.48
38939;BME280;24211;49.980;19.776;2024-03-29T10:17:19;98509.03;;;22.09;43.85
38939;BME280;24211;49.980;19.776;2024-03-29T10:19:47;98508.88;;;22.14;44.41
38939;BME280;24211;49.980;19.776;2024-03-29T10:22:14;98504.88;;;22.38;44.98
38939;BME280;24211;49.980;19.776;2024-03-29T10:24:40;98494.63;;;22.35;44.34
38939;BME280;24211;49.980;19.776;2024-03-29T10:27:07;98512.09;;;22.25;44.82
38939;BME280;24211;49.980;19.776;2024-03-29T10:29:34;98508.41;;;22.30;44.11
38939;BME280;24211;49.980;19.776;2024-03-29T10:32:01;98509.34;;;22.34;44.73
38939;BME280;24211;49.980;19.776;2024-03-29T10:34:29;98506.78;;;22.46;44.59
38939;BME280;24211;49.980;19.776;2024-03-29T10:37:02;98502.16;;;22.55;44.32
38939;BME280;24211;49.980;19.776;2024-03-29T10:39:32;98499.75;;;22.62;44.26
38939;BME280;24211;49.980;19.776;2024-03-29T10:42:00;98490.13;;;22.73;44.46
38939;BME280;24211;49.980;19.776;2024-03-29T10:44:28;98499.72;;;22.79;43.98
38939;BME280;24211;49.980;19.776;2024-03-29T10:46:57;98502.75;;;22.86;43.59
38939;BME280;24211;49.980;19.776;2024-03-29T10:49:25;98489.13;;;22.95;43.05
38939;BME280;24211;49.980;19.776;2024-03-29T10:51:53;98495.63;;;23.11;43.62
38939;BME280;24211;49.980;19.776;2024-03-29T10:54:23;98486.28;;;23.29;44.87
38939;BME280;24211;49.980;19.776;2024-03-29T10:56:59;98490.88;;;23.46;44.09
38939;BME280;24211;49.980;19.776;2024-03-29T10:59:49;98473.31;;;23.55;43.40
38939;BME280;24211;49.980;19.776;2024-03-29T11:02:39;98472.16;;;23.65;43.16
38939;BME280;24211;49.980;19.776;2024-03-29T11:05:14;98464.03;;;23.77;44.36
38939;BME280;24211;49.980;19.776;2024-03-29T11:07:43;98459.41;;;23.98;45.96
38939;BME280;24211;49.980;19.776;2024-03-29T11:10:21;98446.13;;;24.17;45.15
38939;BME280;24211;49.980;19.776;2024-03-29T11:13:12;98445.53;;;24.44;43.46
38939;BME280;24211;49.980;19.776;2024-03-29T11:15:45;98444.19;;;24.50;42.32
38939;BME280;24211;49.980;19.776;2024-03-29T11:18:15;98426.22;;;24.49;40.78
38939;BME280;24211;49.980;19.776;2024-03-29T11:20:46;98417.13;;;24.57;41.00
38939;BME280;24211;49.980;19.776;2024-03-29T11:23:20;98420.34;;;24.72;40.22
38939;BME280;24211;49.980;19.776;2024-03-29T11:25:55;98414.13;;;24.83;38.14
38939;BME280;24211;49.980;19.776;2024-03-29T11:28:34;98406.97;;;24.79;38.12
38939;BME280;24211;49.980;19.776;2024-03-29T11:31:07;98412.22;;;24.84;38.12
38939;BME280;24211;49.980;19.776;2024-03-29T11:36:28;98405.81;;;25.04;37.17
38939;BME280;24211;49.980;19.776;2024-03-29T11:38:58;98401.66;;;25.18;35.59
38939;BME280;24211;49.980;19.776;2024-03-29T11:41:27;98400.03;;;25.17;35.52
38939;BME280;24211;49.980;19.776;2024-03-29T11:43:54;98389.44;;;25.16;35.50
38939;BME280;24211;49.980;19.776;2024-03-29T11:46:22;98387.03;;;25.39;35.22
38939;BME280;24211;49.980;19.776;2024-03-29T11:48:50;98383.53;;;25.50;34.23
38939;BME280;24211;49.980;19.776;2024-03-29T11:51:20;98389.44;;;25.40;34.26
38939;BME280;24211;49.980;19.776;2024-03-29T11:53:48;98393.75;;;25.53;34.70
38939;BME280;24211;49.980;19.776;2024-03-29T11:56:19;98377.78;;;25.67;34.37
38939;BME280;24211;49.980;19.776;2024-03-29T11:58:47;98372.72;;;25.81;33.20
38939;BME280;24211;49.980;19.776;2024-03-29T12:01:16;98374.09;;;25.75;33.97
38939;BME280;24211;49.980;19.776;2024-03-29T12:03:44;98358.16;;;25.77;33.39
38939;BME280;24211;49.980;19.776;2024-03-29T12:06:14;98349.69;;;25.70;34.15
38939;BME280;24211;49.980;19.776;2024-03-29T12:08:43;98339.63;;;25.86;34.35
38939;BME280;24211;49.980;19.776;2024-03-29T12:11:11;98331.91;;;26.04;33.48
38939;BME280;24211;49.980;19.776;2024-03-29T12:13:37;98329.69;;;26.10;33.20
38939;BME280;24211;49.980;19.776;2024-03-29T12:16:07;98333.09;;;25.91;34.31
38939;BME280;24211;49.980;19.776;2024-03-29T12:18:34;98320.28;;;25.79;36.02
38939;BME280;24211;49.980;19.776;2024-03-29T12:21:02;98328.94;;;25.81;36.02
38939;BME280;24211;49.980;19.776;2024-03-29T12:23:29;98327.97;;;26.17;34.51
38939;BME280;24211;49.980;19.776;2024-03-29T12:25:58;98326.22;;;26.25;34.63
38939;BME280;24211;49.980;19.776;2024-03-29T12:28:26;98309.28;;;26.35;34.34
38939;BME280;24211;49.980;19.776;2024-03-29T12:30:53;98315.72;;;26.27;35.55
38939;BME280;24211;49.980;19.776;2024-03-29T12:33:22;98316.63;;;26.62;34.52
38939;BME280;24211;49.980;19.776;2024-03-29T12:35:52;98313.00;;;26.74;33.89
38939;BME280;24211;49.980;19.776;2024-03-29T12:38:22;98323.44;;;26.68;35.24
38939;BME280;24211;49.980;19.776;2024-03-29T12:40:50;98312.38;;;26.65;35.12
38939;BME280;24211;49.980;19.776;2024-03-29T12:43:22;98321.97;;;26.86;35.93
38939;BME280;24211;49.980;19.776;2024-03-29T12:45:50;98317.66;;;27.20;34.65
38939;BME280;24211;49.980;19.776;2024-03-29T12:48:20;98310.97;;;27.37;34.62
38939;BME280;24211;49.980;19.776;2024-03-29T12:50:48;98319.84;;;27.46;33.88
38939;BME280;24211;49.980;19.776;2024-03-29T12:53:16;98312.19;;;27.55;33.44
38939;BME280;24211;49.980;19.776;2024-03-29T12:55:48;98316.88;;;27.54;34.17